Time;durP1;ratioP1;P1;durP2;ratioP2;P2;SDS_P1;SDS_P2;PMS_P1;PMS_P2;Temp;Humidity;BMP_temperature;BMP_pressure;BME280_temperature;BME280_humidity;BME280_pressure;Samples;Min_cycle;Max_cycle;Signal;HPM_P1;HPM_P2
2022/06/09 00:01:15;;;;;;;1.93;0.67;;;14.80;99.90;;;;;;4971747;28;20200;-89
2022/06/09 00:03:47;;;;;;;4.33;1.00;;;14.80;99.90;;;;;;4971245;28;20212;-86
2022/06/09 00:06:15;;;;;;;14.60;1.47;;;14.80;99.90;;;;;;4971565;28;20204;-88
2022/06/09 00:08:46;;;;;;;2.93;0.70;;;14.80;99.90;;;;;;4970987;28;20578;-85
2022/06/09 00:11:17;;;;;;;2.13;0.90;;;14.80;99.90;;;;;;4971482;28;20292;-86
2022/06/09 00:13:45;;;;;;;3.90;1.17;;;14.90;99.90;;;;;;4973040;28;20640;-91
2022/06/09 00:16:13;;;;;;;3.13;1.20;;;14.90;99.90;;;;;;4974663;28;20312;-88
2022/06/09 00:18:41;;;;;;;2.33;1.30;;;14.90;99.90;;;;;;4972978;28;20205;-81
2022/06/09 00:21:08;;;;;;;3.87;1.50;;;14.90;99.90;;;;;;4974113;28;20230;-86
2022/06/09 00:23:36;;;;;;;4.70;1.50;;;14.90;99.90;;;;;;4975744;28;20216;-89
2022/06/09 00:26:03;;;;;;;3.85;1.52;;;14.90;99.90;;;;;;4975008;28;20219;-88
2022/06/09 00:28:31;;;;;;;3.23;1.30;;;14.90;99.90;;;;;;4974775;28;20295;-88
2022/06/09 00:30:58;;;;;;;2.87;1.60;;;15.00;99.90;;;;;;4983115;28;20204;-89
2022/06/09 00:33:24;;;;;;;2.00;0.90;;;15.00;99.90;;;;;;4994440;28;20240;-89
2022/06/09 00:35:51;;;;;;;1.45;0.70;;;15.00;99.90;;;;;;4993290;28;20231;-87
2022/06/09 00:38:18;;;;;;;3.20;1.10;;;15.00;99.90;;;;;;4992983;28;20274;-83
2022/06/09 00:40:47;;;;;;;3.23;0.90;;;15.00;99.90;;;;;;4993502;28;20207;-89
2022/06/09 00:43:13;;;;;;;3.00;1.30;;;15.00;99.90;;;;;;4993220;28;20208;-86
2022/06/09 00:45:42;;;;;;;1.70;0.90;;;15.00;99.90;;;;;;4992989;28;20538;-89
2022/06/09 00:48:22;;;;;;;4.83;1.30;;;15.00;99.90;;;;;;4992499;28;20906;-81
2022/06/09 00:50:55;;;;;;;9.33;1.77;;;15.10;99.90;;;;;;4993468;28;20229;-90
2022/06/09 00:53:27;;;;;;;5.47;1.50;;;15.00;99.90;;;;;;4992484;28;20651;-91
2022/06/09 00:55:57;;;;;;;3.13;1.37;;;15.10;99.90;;;;;;4993641;28;20514;-86
2022/06/09 00:58:25;;;;;;;5.97;1.37;;;15.10;99.90;;;;;;4992955;28;20212;-90
2022/06/09 01:00:56;;;;;;;5.63;1.67;;;15.10;99.90;;;;;;4978887;28;20205;-87
2022/06/09 01:03:26;;;;;;;4.57;1.27;;;15.10;99.90;;;;;;4954523;28;20917;-82
2022/06/09 01:06:00;;;;;;;6.00;1.53;;;15.10;99.90;;;;;;4954487;28;20205;-87
2022/06/09 01:08:27;;;;;;;3.97;1.53;;;15.10;99.90;;;;;;4965849;28;20212;-85
2022/06/09 01:10:56;;;;;;;3.03;1.20;;;15.10;99.90;;;;;;4973505;28;20208;-90
2022/06/09 01:13:23;;;;;;;3.77;1.30;;;15.10;99.90;;;;;;4972246;28;20975;-84
2022/06/09 01:15:58;;;;;;;4.68;1.35;;;15.20;99.90;;;;;;4971935;28;20232;-86
2022/06/09 01:18:35;;;;;;;3.20;1.50;;;15.10;99.90;;;;;;4955534;28;20629;-83
2022/06/09 01:21:10;;;;;;;1.87;1.20;;;15.20;99.90;;;;;;4952506;29;20224;-89
2022/06/09 01:24:03;;;;;;;3.63;1.60;;;15.20;99.90;;;;;;4952317;28;20676;-92
2022/06/09 01:27:15;;;;;;;2.80;1.40;;;15.20;99.90;;;;;;4956328;28;20688;-89
2022/06/09 01:29:51;;;;;;;3.40;1.20;;;15.30;99.90;;;;;;4962079;28;20216;-91
2022/06/09 01:32:28;;;;;;;2.97;1.50;;;15.30;99.90;;;;;;4973575;28;20204;-94
2022/06/09 01:35:11;;;;;;;2.13;1.17;;;15.40;99.90;;;;;;4977817;28;20339;-94
2022/06/09 01:37:40;;;;;;;3.77;1.37;;;15.40;99.90;;;;;;4993845;28;20196;-82
2022/06/09 01:40:10;;;;;;;3.13;1.20;;;15.30;99.90;;;;;;4993124;28;20196;-91
2022/06/09 01:42:39;;;;;;;5.90;1.40;;;15.30;99.90;;;;;;4984362;28;20211;-91
2022/06/09 01:45:12;;;;;;;4.63;1.73;;;15.30;99.90;;;;;;4974354;28;20288;-91
2022/06/09 01:47:47;;;;;;;4.83;1.60;;;15.30;99.90;;;;;;4974634;28;20313;-90
2022/06/09 01:50:24;;;;;;;5.03;1.87;;;15.20;99.90;;;;;;4973269;28;20207;-89
2022/06/09 01:52:53;;;;;;;4.37;1.90;;;15.10;99.90;;;;;;4973992;28;20208;-92
2022/06/09 01:55:23;;;;;;;3.87;1.87;;;15.10;99.90;;;;;;4986393;28;20588;-89
2022/06/09 01:57:57;;;;;;;5.17;1.70;;;15.10;99.90;;;;;;4993335;28;20195;-82
2022/06/09 02:00:25;;;;;;;5.07;1.90;;;15.10;99.90;;;;;;4993181;28;20516;-88
2022/06/09 02:02:59;;;;;;;4.43;1.90;;;15.10;99.90;;;;;;4988960;28;20621;-89
2022/06/09 02:05:29;;;;;;;4.03;2.03;;;15.10;99.90;;;;;;4972520;28;20799;-85
2022/06/09 02:08:00;;;;;;;4.90;1.90;;;15.10;99.90;;;;;;4972776;28;20236;-86
2022/06/09 02:10:32;;;;;;;5.03;2.00;;;15.00;99.90;;;;;;4964541;28;20528;-87
2022/06/09 02:13:03;;;;;;;5.60;2.23;;;15.00;99.90;;;;;;4953901;28;20320;-91
2022/06/09 02:15:34;;;;;;;6.33;2.77;;;15.00;99.90;;;;;;4953136;29;20240;-89
2022/06/09 02:18:09;;;;;;;5.37;2.93;;;14.90;99.90;;;;;;4952882;28;20194;-90
2022/06/09 02:20:41;;;;;;;4.70;2.40;;;14.90;99.90;;;;;;4953885;29;20419;-92
2022/06/09 02:23:10;;;;;;;7.83;3.37;;;15.00;99.90;;;;;;4953443;29;20233;-85
2022/06/09 02:25:37;;;;;;;5.57;2.13;;;15.00;99.90;;;;;;4952492;28;20202;-90
2022/06/09 02:28:05;;;;;;;6.20;1.93;;;14.90;99.90;;;;;;4961782;28;20207;-83
2022/06/09 02:30:32;;;;;;;4.70;1.80;;;14.90;99.90;;;;;;4993668;28;20207;-89
2022/06/09 02:32:59;;;;;;;5.57;1.90;;;15.00;99.90;;;;;;4991182;28;20922;-81
2022/06/09 02:35:28;;;;;;;5.73;1.80;;;14.90;99.90;;;;;;4990951;28;20311;-79
2022/06/09 02:37:55;;;;;;;3.05;1.58;;;14.90;99.90;;;;;;4987320;28;20303;-88
2022/06/09 02:40:23;;;;;;;6.63;1.90;;;14.90;99.90;;;;;;4954317;28;20209;-88
2022/06/09 02:42:49;;;;;;;4.68;2.13;;;14.80;99.90;;;;;;4954040;29;20293;-85
2022/06/09 02:45:17;;;;;;;6.05;1.85;;;14.80;99.90;;;;;;4952575;28;20209;-86
2022/06/09 02:47:44;;;;;;;6.43;1.83;;;14.70;99.90;;;;;;4953581;29;20322;-88
2022/06/09 02:50:12;;;;;;;5.87;1.77;;;14.70;99.90;;;;;;4994556;28;20203;-85
2022/06/09 02:52:41;;;;;;;9.03;2.77;;;14.70;99.90;;;;;;4993957;28;20235;-91
2022/06/09 02:55:09;;;;;;;5.80;1.90;;;14.60;99.90;;;;;;5000539;28;20230;-81
2022/06/09 02:57:36;;;;;;;7.20;2.00;;;14.60;99.90;;;;;;4999552;28;20355;-88
2022/06/09 03:00:05;;;;;;;7.77;1.90;;;14.60;99.90;;;;;;4970867;28;20205;-91
2022/06/09 03:02:32;;;;;;;6.77;1.97;;;14.60;99.90;;;;;;4989634;28;20210;-87
2022/06/09 03:04:59;;;;;;;6.33;2.30;;;14.60;99.90;;;;;;4992230;28;20193;-84
2022/06/09 03:07:26;;;;;;;4.60;1.50;;;14.60;99.90;;;;;;4984059;28;20275;-82
2022/06/09 03:09:54;;;;;;;5.97;1.63;;;14.60;99.90;;;;;;4982643;28;20201;-87
2022/06/09 03:12:21;;;;;;;9.73;1.90;;;14.50;99.90;;;;;;4974181;28;20240;-88
2022/06/09 03:14:49;;;;;;;11.37;2.77;;;14.50;99.90;;;;;;4970935;28;20209;-89
2022/06/09 03:17:16;;;;;;;10.43;2.37;;;14.50;99.90;;;;;;4955331;28;20232;-87
2022/06/09 03:19:43;;;;;;;10.17;2.67;;;14.40;99.90;;;;;;4957244;28;20303;-89
2022/06/09 03:22:10;;;;;;;4.87;1.90;;;14.40;99.90;;;;;;4954337;28;20292;-87
2022/06/09 03:24:37;;;;;;;5.77;1.97;;;14.40;99.90;;;;;;4953845;28;20311;-89
2022/06/09 03:27:07;;;;;;;7.83;2.10;;;14.40;99.90;;;;;;4971432;28;20219;-89
2022/06/09 03:29:34;;;;;;;10.57;2.57;;;14.30;99.90;;;;;;4971165;28;20243;-89
2022/06/09 03:32:01;;;;;;;9.97;2.37;;;14.40;99.90;;;;;;4971391;28;20196;-88
2022/06/09 03:34:28;;;;;;;5.73;1.80;;;14.40;99.90;;;;;;4968022;28;20328;-84
2022/06/09 03:36:55;;;;;;;6.43;1.93;;;14.30;99.90;;;;;;4966853;23;20251;-92
2022/06/09 03:39:22;;;;;;;7.73;2.53;;;14.30;99.90;;;;;;4970083;28;20583;-82
2022/06/09 03:41:49;;;;;;;6.97;2.20;;;14.40;99.90;;;;;;4970509;28;20208;-82
2022/06/09 03:44:17;;;;;;;4.27;2.07;;;14.30;99.90;;;;;;4970927;28;20684;-88
2022/06/09 03:46:44;;;;;;;8.53;2.23;;;14.30;99.90;;;;;;4958853;28;20205;-83
2022/06/09 03:49:11;;;;;;;8.03;3.13;;;14.30;99.90;;;;;;4952309;28;20201;-85
2022/06/09 03:51:38;;;;;;;5.77;1.57;;;14.40;99.90;;;;;;4956053;29;20193;-81
2022/06/09 03:54:05;;;;;;;7.17;1.90;;;14.30;99.90;;;;;;4972303;28;20215;-85
2022/06/09 03:56:32;;;;;;;10.07;2.40;;;14.40;99.90;;;;;;4973709;28;20236;-88
2022/06/09 03:58:59;;;;;;;5.70;1.90;;;14.50;99.90;;;;;;4973846;28;20211;-86
2022/06/09 04:01:27;;;;;;;8.10;1.80;;;14.60;99.90;;;;;;4973489;28;20271;-87
2022/06/09 04:03:54;;;;;;;4.80;1.90;;;14.60;99.90;;;;;;4972825;28;20219;-88
2022/06/09 04:06:24;;;;;;;7.25;2.28;;;14.70;99.90;;;;;;4991935;28;20687;-89
2022/06/09 04:08:52;;;;;;;6.20;2.37;;;14.70;99.90;;;;;;4996381;28;20215;-89
2022/06/09 04:11:20;;;;;;;5.13;1.50;;;14.80;99.90;;;;;;4979066;28;20208;-89
2022/06/09 04:13:47;;;;;;;14.73;2.30;;;14.90;99.90;;;;;;4974888;28;20212;-88
2022/06/09 04:16:21;;;;;;;4.03;1.60;;;15.00;99.90;;;;;;4974355;28;20401;-88
2022/06/09 04:18:49;;;;;;;7.70;2.00;;;15.10;99.90;;;;;;4973288;28;20208;-89
2022/06/09 04:21:17;;;;;;;6.43;1.88;;;15.30;99.90;;;;;;4974005;28;20480;-89
2022/06/09 04:23:44;;;;;;;7.60;1.90;;;15.40;99.90;;;;;;4973436;28;20792;-91
2022/06/09 04:26:15;;;;;;;8.50;1.43;;;15.50;99.90;;;;;;4974037;28;20209;-90
2022/06/09 04:28:42;;;;;;;5.68;1.67;;;15.60;99.90;;;;;;4966705;28;20208;-91
2022/06/09 04:31:10;;;;;;;6.75;1.77;;;15.80;99.90;;;;;;4989784;28;20204;-91
2022/06/09 04:33:38;;;;;;;7.18;1.95;;;15.90;99.90;;;;;;4980185;28;20209;-91
2022/06/09 04:36:08;;;;;;;5.13;1.97;;;15.90;99.90;;;;;;4974683;28;20228;-88
2022/06/09 04:38:36;;;;;;;7.65;1.75;;;16.00;99.90;;;;;;4974546;28;20488;-90
2022/06/09 04:41:04;;;;;;;6.95;1.50;;;16.00;99.90;;;;;;4973911;28;20287;-89
2022/06/09 04:43:31;;;;;;;5.57;1.70;;;15.90;99.90;;;;;;4974279;28;20209;-91
2022/06/09 04:45:58;;;;;;;5.65;2.00;;;15.90;99.90;;;;;;4973537;28;20208;-84
2022/06/09 04:48:25;;;;;;;4.10;1.60;;;16.00;99.90;;;;;;4964297;28;20227;-90
2022/06/09 04:50:51;;;;;;;7.65;2.10;;;16.00;99.90;;;;;;4957263;28;20229;-90
2022/06/09 04:53:20;;;;;;;4.57;1.83;;;16.10;99.90;;;;;;4972874;28;20499;-89
2022/06/09 04:55:47;;;;;;;6.88;2.30;;;16.20;99.90;;;;;;4977127;28;20236;-89
2022/06/09 04:58:14;;;;;;;6.97;2.00;;;16.40;99.90;;;;;;4977343;28;20239;-85
2022/06/09 05:00:41;;;;;;;6.72;1.80;;;16.60;99.90;;;;;;4973616;28;20600;-88
2022/06/09 05:03:11;;;;;;;6.90;1.83;;;17.00;99.90;;;;;;4973842;28;20417;-90
2022/06/09 05:05:40;;;;;;;6.30;1.73;;;17.30;99.90;;;;;;4973679;28;20228;-86
2022/06/09 05:08:07;;;;;;;5.07;1.27;;;17.70;99.90;;;;;;4993509;28;20285;-91
2022/06/09 05:10:36;;;;;;;8.98;1.60;;;18.00;99.90;;;;;;4993565;28;20204;-89
2022/06/09 05:13:05;;;;;;;5.00;1.58;;;18.40;99.90;;;;;;4983757;28;20535;-87
2022/06/09 05:15:34;;;;;;;3.55;1.05;;;18.70;99.90;;;;;;4973178;28;20232;-83
2022/06/09 05:18:00;;;;;;;5.43;1.30;;;19.00;99.90;;;;;;4972306;28;20239;-92
2022/06/09 05:20:28;;;;;;;3.90;2.00;;;19.10;99.90;;;;;;4972850;28;20210;-86
2022/06/09 05:22:55;;;;;;;8.43;1.30;;;19.00;99.90;;;;;;4975049;28;20279;-91
2022/06/09 05:25:22;;;;;;;6.32;1.50;;;18.80;99.90;;;;;;4974261;28;20193;-82
2022/06/09 05:27:51;;;;;;;6.18;1.38;;;18.60;99.90;;;;;;4973396;28;20527;-88
2022/06/09 05:30:20;;;;;;;8.73;2.00;;;18.30;99.90;;;;;;4973425;28;20628;-91
2022/06/09 05:32:47;;;;;;;7.95;1.90;;;18.10;99.90;;;;;;4969755;28;20228;-89
2022/06/09 05:35:15;;;;;;;5.57;1.40;;;17.80;99.90;;;;;;4972918;28;20297;-88
2022/06/09 05:45:59;;;;;;;4.25;1.70;;;17.30;99.90;;;;;;4973120;28;20204;-86
2022/06/09 05:48:27;;;;;;;6.43;1.52;;;17.80;99.90;;;;;;4972947;28;20291;-86
2022/06/09 05:50:55;;;;;;;7.07;1.50;;;18.30;99.90;;;;;;4972453;28;20272;-84
2022/06/09 05:53:22;;;;;;;3.38;1.27;;;18.80;99.90;;;;;;4972962;28;20315;-81
2022/06/09 05:55:49;;;;;;;7.97;2.00;;;19.20;99.90;;;;;;4972903;28;20235;-91
2022/06/09 05:58:17;;;;;;;5.20;1.40;;;19.40;99.90;;;;;;4973257;28;20615;-89
2022/06/09 06:00:45;;;;;;;6.97;2.10;;;19.70;99.90;;;;;;4973112;28;20212;-92
2022/06/09 06:03:13;;;;;;;6.70;2.05;;;20.00;99.90;;;;;;4971933;28;20212;-80
2022/06/09 06:08:25;;;;;;;5.63;1.50;;;20.10;99.90;;;;;;4956428;28;20193;-89
2022/06/09 06:10:52;;;;;;;6.00;1.60;;;20.30;99.90;;;;;;4972713;28;20200;-88
2022/06/09 06:13:21;;;;;;;8.30;1.73;;;20.60;99.90;;;;;;4974062;28;20204;-80
2022/06/09 06:15:49;;;;;;;5.45;1.60;;;20.80;99.90;;;;;;4973706;28;21073;-90
2022/06/09 06:18:16;;;;;;;9.60;2.55;;;20.90;99.90;;;;;;4972857;28;20480;-88
2022/06/09 06:20:43;;;;;;;6.97;1.88;;;21.00;99.90;;;;;;4974287;28;20287;-89
2022/06/09 06:23:10;;;;;;;3.28;1.20;;;21.10;99.90;;;;;;4972544;28;20204;-91
2022/06/09 06:25:37;;;;;;;4.18;1.40;;;21.20;99.90;;;;;;4973103;28;20290;-90
2022/06/09 06:28:05;;;;;;;4.35;1.40;;;21.40;99.90;;;;;;4972717;28;20283;-90
2022/06/09 06:30:33;;;;;;;6.15;1.60;;;21.50;99.90;;;;;;4971685;28;20197;-83
2022/06/09 06:33:00;;;;;;;5.63;1.42;;;21.70;99.90;;;;;;4970740;28;20212;-87
2022/06/09 06:35:27;;;;;;;8.25;1.98;;;21.80;99.90;;;;;;4969996;28;20208;-87
2022/06/09 06:37:55;;;;;;;7.32;2.10;;;22.00;99.90;;;;;;4972498;28;20248;-87
2022/06/09 06:40:22;;;;;;;8.30;1.70;;;22.10;99.90;;;;;;4972937;28;20215;-89
2022/06/09 06:42:49;;;;;;;7.45;1.85;;;21.70;99.90;;;;;;4972801;28;20227;-87
2022/06/09 06:45:17;;;;;;;7.68;2.08;;;21.40;99.90;;;;;;4963625;28;20552;-88
2022/06/09 06:47:45;;;;;;;6.80;1.58;;;21.30;99.90;;;;;;4952618;29;20240;-83
2022/06/09 06:50:14;;;;;;;6.63;1.80;;;21.30;99.90;;;;;;4972154;28;20517;-90
2022/06/09 06:52:42;;;;;;;6.55;1.90;;;21.50;99.90;;;;;;5011851;23;20252;-85
2022/06/09 06:55:14;;;;;;;8.13;2.00;;;21.70;99.90;;;;;;4984701;28;20219;-85
2022/06/09 06:57:41;;;;;;;8.60;1.88;;;21.80;99.90;;;;;;4988844;28;20242;-90
2022/06/09 07:00:11;;;;;;;6.07;1.92;;;21.80;99.90;;;;;;4985351;28;20212;-88
2022/06/09 07:02:38;;;;;;;5.28;1.40;;;22.10;99.90;;;;;;4971915;28;20518;-86
2022/06/09 07:05:08;;;;;;;5.20;1.75;;;22.40;99.90;;;;;;4989451;28;20270;-88
2022/06/09 07:07:35;;;;;;;6.70;1.70;;;22.50;99.90;;;;;;4986834;28;20235;-87
2022/06/09 07:10:03;;;;;;;8.48;1.88;;;22.50;99.90;;;;;;4985624;28;20214;-90
2022/06/09 07:12:30;;;;;;;5.53;1.70;;;22.40;99.90;;;;;;4987609;28;20303;-90
2022/06/09 07:14:57;;;;;;;6.63;2.17;;;22.40;99.90;;;;;;4987689;28;20222;-85
2022/06/09 07:17:24;;;;;;;5.93;1.75;;;22.40;99.90;;;;;;4987664;28;20239;-87
2022/06/09 07:19:52;;;;;;;8.32;2.20;;;22.40;99.90;;;;;;4988075;28;20219;-89
2022/06/09 07:22:20;;;;;;;7.95;2.00;;;22.40;99.90;;;;;;4987833;28;20650;-81
2022/06/09 07:24:48;;;;;;;5.25;2.08;;;22.10;99.90;;;;;;4983960;28;20272;-87
2022/06/09 07:27:15;;;;;;;5.88;1.80;;;22.20;99.90;;;;;;4987942;28;20212;-82
2022/06/09 07:29:43;;;;;;;6.78;2.03;;;22.30;99.90;;;;;;4988370;28;20334;-87
2022/06/09 07:32:10;;;;;;;6.82;2.00;;;22.50;99.90;;;;;;4988840;28;20218;-91
2022/06/09 07:34:38;;;;;;;7.47;2.08;;;22.60;99.90;;;;;;4988224;28;20252;-92
2022/06/09 07:37:05;;;;;;;7.70;1.75;;;22.60;99.90;;;;;;4990273;28;20230;-88
2022/06/09 07:39:34;;;;;;;7.22;1.90;;;22.80;99.90;;;;;;4985737;28;20299;-90
2022/06/09 07:42:03;;;;;;;7.18;1.90;;;23.00;99.90;;;;;;4985131;28;20299;-90
2022/06/09 07:44:30;;;;;;;7.35;2.05;;;23.30;99.90;;;;;;4988614;28;20212;-90
2022/06/09 07:46:57;;;;;;;6.60;1.90;;;23.30;99.90;;;;;;4989232;28;20302;-83
2022/06/09 07:49:25;;;;;;;4.95;1.70;;;23.30;99.90;;;;;;4989720;28;20204;-87
2022/06/09 07:51:52;;;;;;;6.55;1.88;;;23.40;99.90;;;;;;4990800;28;20232;-92
2022/06/09 07:54:19;;;;;;;6.20;1.85;;;23.40;99.90;;;;;;4991884;28;20683;-90
2022/06/09 07:56:48;;;;;;;7.25;1.63;;;23.30;99.90;;;;;;5010762;28;20310;-85
2022/06/09 07:59:15;;;;;;;6.30;1.85;;;23.40;99.90;;;;;;5009700;28;20203;-82
2022/06/09 08:01:42;;;;;;;6.15;1.88;;;23.80;99.90;;;;;;4994742;28;20294;-89
2022/06/09 08:04:09;;;;;;;9.13;2.08;;;23.80;99.90;;;;;;4990142;28;20593;-90
2022/06/09 08:06:36;;;;;;;7.68;2.05;;;23.90;99.90;;;;;;4989645;28;20200;-84
2022/06/09 08:09:03;;;;;;;6.22;1.85;;;23.90;99.90;;;;;;4989606;28;20294;-85
2022/06/09 08:11:33;;;;;;;6.15;1.60;;;24.00;99.90;;;;;;4990080;28;20218;-87
2022/06/09 08:14:03;;;;;;;7.03;2.17;;;24.10;99.90;;;;;;4990242;28;20202;-83
2022/06/09 08:16:31;;;;;;;7.78;1.98;;;23.90;99.90;;;;;;4988271;28;20237;-87
2022/06/09 08:18:59;;;;;;;6.43;1.63;;;24.00;99.90;;;;;;4989567;28;20230;-87
2022/06/09 08:21:26;;;;;;;5.80;1.80;;;24.30;99.90;;;;;;4989795;28;20229;-88
2022/06/09 08:23:53;;;;;;;8.35;2.03;;;24.40;99.90;;;;;;4988985;28;20200;-87
2022/06/09 08:26:20;;;;;;;6.78;1.80;;;24.30;99.90;;;;;;4989612;28;20217;-86
2022/06/09 08:28:48;;;;;;;8.30;1.90;;;24.30;99.90;;;;;;4991318;28;20306;-88
2022/06/09 08:31:16;;;;;;;8.27;1.65;;;24.30;99.90;;;;;;5008749;28;20513;-87
2022/06/09 08:33:43;;;;;;;5.40;1.70;;;24.20;99.90;;;;;;4997993;28;20267;-83
2022/06/09 08:36:11;;;;;;;7.78;2.35;;;24.30;99.90;;;;;;4994101;28;20239;-86
2022/06/09 08:38:38;;;;;;;6.05;1.80;;;24.40;99.90;;;;;;5013519;28;20226;-86
2022/06/09 08:41:17;;;;;;;9.38;2.05;;;24.50;99.90;;;;;;5002153;28;20294;-87
2022/06/09 08:43:48;;;;;;;5.28;1.92;;;24.50;99.90;;;;;;4996209;28;20906;-85
2022/06/09 08:46:25;;;;;;;6.72;1.55;;;24.60;99.90;;;;;;4995937;28;20238;-84
2022/06/09 08:48:55;;;;;;;4.57;1.85;;;24.50;99.90;;;;;;4996117;28;20208;-87
2022/06/09 08:51:30;;;;;;;6.50;2.00;;;24.60;99.90;;;;;;4996140;28;20299;-83
2022/06/09 08:54:05;;;;;;;5.90;2.13;;;24.40;99.90;;;;;;4997160;28;20222;-87
2022/06/09 08:56:32;;;;;;;5.85;1.67;;;24.40;99.90;;;;;;4994442;28;20290;-83
2022/06/09 08:59:02;;;;;;;6.32;1.80;;;24.50;99.90;;;;;;4994476;28;20192;-87
2022/06/09 09:01:36;;;;;;;7.60;1.92;;;24.70;99.90;;;;;;4993087;28;20314;-85
2022/06/09 09:04:15;;;;;;;7.43;2.22;;;24.70;99.90;;;;;;5008008;28;20199;-88
2022/06/09 09:06:48;;;;;;;5.75;1.90;;;24.70;99.90;;;;;;5012186;28;20203;-90
2022/06/09 09:09:17;;;;;;;6.07;2.00;;;24.70;99.90;;;;;;5000509;28;20226;-86
2022/06/09 09:11:58;;;;;;;6.57;2.35;;;24.70;99.90;;;;;;4996370;28;20199;-88
2022/06/09 09:14:30;;;;;;;6.07;2.03;;;24.50;99.90;;;;;;4997679;28;20214;-86
2022/06/09 09:17:10;;;;;;;8.63;2.67;;;24.30;99.90;;;;;;4998169;28;20247;-80
2022/06/09 09:19:48;;;;;;;5.53;2.00;;;24.40;99.90;;;;;;5002030;28;20327;-84
2022/06/09 09:22:24;;;;;;;9.38;2.10;;;24.50;99.90;;;;;;5006882;28;20274;-87
2022/06/09 09:25:01;;;;;;;6.22;2.05;;;24.20;99.90;;;;;;5009897;28;20183;-83
2022/06/09 09:27:36;;;;;;;7.00;1.90;;;24.00;99.90;;;;;;5007750;28;20469;-81
2022/06/09 09:30:17;;;;;;;8.65;2.38;;;23.90;99.90;;;;;;5004526;28;21037;-87
2022/06/09 09:32:48;;;;;;;9.25;2.50;;;23.90;99.90;;;;;;5003965;28;20200;-87
2022/06/09 09:35:18;;;;;;;8.98;2.70;;;23.90;99.90;;;;;;5001065;28;20259;-88
2022/06/09 09:37:48;;;;;;;5.75;2.10;;;23.60;99.90;;;;;;4987469;28;20720;-86
2022/06/09 09:40:20;;;;;;;8.43;2.10;;;23.70;99.90;;;;;;4977146;28;20213;-81
2022/06/09 09:42:48;;;;;;;8.05;2.53;;;23.20;99.90;;;;;;4980159;28;20248;-81
2022/06/09 09:45:18;;;;;;;9.45;2.47;;;22.90;99.90;;;;;;5006546;28;20261;-84
2022/06/09 09:47:50;;;;;;;10.00;2.75;;;22.60;99.90;;;;;;5012569;28;20196;-90
2022/06/09 09:50:24;;;;;;;7.90;3.15;;;22.60;99.90;;;;;;4981404;28;20232;-84
2022/06/09 09:53:01;;;;;;;9.45;2.88;;;22.30;99.90;;;;;;4974588;28;20323;-89
2022/06/09 09:55:33;;;;;;;6.15;2.65;;;22.30;99.90;;;;;;4973445;28;20214;-85
2022/06/09 09:58:24;;;;;;;11.40;2.72;;;22.50;99.90;;;;;;4972775;28;20231;-86
2022/06/09 10:00:54;;;;;;;8.40;2.45;;;22.50;99.90;;;;;;4953820;28;20211;-82
2022/06/09 10:09:20;;;;;;;7.18;2.65;;;22.60;99.90;;;;;;4989624;28;20212;-88
2022/06/09 10:11:55;;;;;;;11.70;2.78;;;22.80;99.90;;;;;;4991178;28;20241;-84
2022/06/09 10:14:48;;;;;;;7.75;2.67;;;22.90;99.90;;;;;;4991481;28;20242;-86
2022/06/09 10:17:29;;;;;;;11.15;2.95;;;22.80;99.90;;;;;;4982026;28;20236;-91
2022/06/09 10:20:06;;;;;;;10.93;3.00;;;22.70;99.90;;;;;;4970871;28;20276;-84
2022/06/09 10:22:35;;;;;;;9.70;2.97;;;22.80;99.90;;;;;;4969427;28;20723;-89
2022/06/09 10:25:14;;;;;;;9.65;3.28;;;23.00;99.90;;;;;;5005899;28;20218;-89
2022/06/09 10:27:46;;;;;;;12.45;3.20;;;23.10;99.90;;;;;;5012728;28;20211;-89
2022/06/09 10:30:18;;;;;;;15.07;3.40;;;23.00;99.90;;;;;;5011653;28;20326;-82
2022/06/09 10:32:51;;;;;;;12.43;2.60;;;22.90;99.90;;;;;;5007745;28;20205;-84
2022/06/09 10:35:27;;;;;;;10.48;3.65;;;22.60;99.90;;;;;;4989434;28;20322;-83
2022/06/09 10:38:00;;;;;;;8.10;2.92;;;22.40;99.90;;;;;;4991833;28;20226;-86
2022/06/09 10:40:34;;;;;;;9.68;2.45;;;22.40;99.90;;;;;;4990626;28;20219;-85
2022/06/09 10:43:06;;;;;;;14.23;3.80;;;22.40;99.90;;;;;;4990594;28;20207;-83
2022/06/09 10:45:40;;;;;;;10.88;2.90;;;22.20;99.90;;;;;;4990746;28;20250;-87
2022/06/09 10:56:47;;;;;;;9.85;3.00;;;22.10;99.90;;;;;;4980353;28;20207;-88
2022/06/09 10:59:22;;;;;;;12.20;3.05;;;22.00;99.90;;;;;;4990108;28;20503;-84
2022/06/09 11:01:50;;;;;;;12.00;2.95;;;22.20;99.90;;;;;;4988954;28;20207;-84
2022/06/09 11:04:18;;;;;;;12.38;3.42;;;22.50;99.90;;;;;;4988184;28;20211;-83
2022/06/09 11:07:08;;;;;;;12.13;3.03;;;22.70;99.90;;;;;;4956763;28;20235;-86
2022/06/09 11:09:46;;;;;;;13.48;3.42;;;23.00;99.90;;;;;;4951832;28;20217;-83
2022/06/09 11:12:24;;;;;;;10.48;3.05;;;23.20;99.90;;;;;;4950908;29;20198;-83
2022/06/09 11:15:09;;;;;;;14.95;3.90;;;23.40;99.90;;;;;;4976513;28;20223;-84
2022/06/09 11:17:49;;;;;;;13.70;3.30;;;23.60;99.90;;;;;;4988530;28;20223;-82
2022/06/09 11:20:26;;;;;;;9.45;3.17;;;23.70;99.90;;;;;;4988779;28;20210;-86
2022/06/09 11:23:04;;;;;;;10.43;3.00;;;23.80;99.90;;;;;;4950531;29;20222;-82
2022/06/09 11:25:43;;;;;;;9.80;3.08;;;23.70;99.90;;;;;;4958795;28;20207;-88
2022/06/09 11:28:25;;;;;;;10.75;2.75;;;23.60;99.90;;;;;;4969365;28;20188;-84
2022/06/09 11:31:06;;;;;;;10.95;3.00;;;23.40;99.90;;;;;;4949381;29;20216;-82
2022/06/09 11:33:53;;;;;;;7.50;2.38;;;23.50;99.90;;;;;;4947751;29;20612;-86
2022/06/09 11:36:28;;;;;;;8.32;2.30;;;23.40;99.90;;;;;;4961695;28;20507;-88
2022/06/09 11:39:27;;;;;;;8.27;2.15;;;23.50;99.90;;;;;;4978022;23;20246;-89
2022/06/09 11:42:02;;;;;;;9.60;2.45;;;23.20;99.90;;;;;;4972411;28;20521;-90
2022/06/09 11:44:30;;;;;;;11.00;3.05;;;23.20;99.90;;;;;;4962441;28;20553;-92
2022/06/09 11:47:03;;;;;;;12.13;3.03;;;23.10;99.90;;;;;;4970391;28;20204;-91
2022/06/09 11:49:36;;;;;;;10.70;2.97;;;23.30;99.90;;;;;;4990179;28;20206;-92
2022/06/09 11:52:06;;;;;;;10.70;3.22;;;23.40;99.90;;;;;;4990929;28;20829;-94
2022/06/09 11:54:42;;;;;;;9.05;3.10;;;23.10;99.90;;;;;;4961943;28;20307;-92
2022/06/09 11:57:26;;;;;;;10.10;3.22;;;23.10;99.90;;;;;;4966472;28;20203;-83
2022/06/09 11:59:56;;;;;;;9.35;2.60;;;23.10;99.90;;;;;;4990939;28;20290;-93
2022/06/09 12:02:34;;;;;;;8.88;2.63;;;23.00;99.90;;;;;;4972368;28;20278;-88
2022/06/09 12:05:18;;;;;;;10.90;2.63;;;23.10;99.90;;;;;;4968299;28;20222;-83
2022/06/09 12:08:23;;;;;;;10.68;3.00;;;23.00;99.90;;;;;;4970202;28;20192;-89
2022/06/09 12:11:06;;;;;;;13.68;3.28;;;22.70;99.90;;;;;;4972641;28;20243;-85
2022/06/09 12:13:46;;;;;;;12.68;2.90;;;22.60;99.90;;;;;;4973026;28;20201;-86
2022/06/09 12:16:26;;;;;;;9.35;2.97;;;22.70;99.90;;;;;;4972810;28;20239;-81
2022/06/09 12:19:06;;;;;;;11.13;3.08;;;22.80;99.90;;;;;;4973138;28;20216;-82
2022/06/09 12:21:37;;;;;;;10.27;2.90;;;23.00;99.90;;;;;;4972571;28;20205;-90
2022/06/09 12:24:31;;;;;;;10.90;2.78;;;23.20;99.90;;;;;;4983601;28;20308;-84
2022/06/09 12:27:22;;;;;;;11.00;2.88;;;23.10;99.90;;;;;;4991525;28;20318;-83
2022/06/09 12:30:22;;;;;;;8.57;2.85;;;23.30;99.90;;;;;;4977222;28;20548;-82
2022/06/09 12:32:51;;;;;;;8.32;2.90;;;23.40;99.90;;;;;;4958160;28;20192;-83
2022/06/09 12:35:31;;;;;;;10.60;3.03;;;23.70;99.90;;;;;;4971893;28;20204;-86
2022/06/09 12:38:02;;;;;;;9.23;2.35;;;23.90;99.90;;;;;;4972281;28;20212;-79
2022/06/09 12:40:44;;;;;;;8.93;3.05;;;24.10;99.90;;;;;;4967497;28;20237;-85
2022/06/09 12:43:28;;;;;;;14.60;3.25;;;24.20;99.90;;;;;;4952931;29;20204;-86
2022/06/09 12:46:06;;;;;;;7.55;2.40;;;24.40;99.90;;;;;;4952808;29;20214;-90
2022/06/09 12:48:34;;;;;;;15.23;2.53;;;24.50;99.90;;;;;;4957442;28;20203;-88
2022/06/09 12:51:04;;;;;;;10.02;3.22;;;24.80;99.90;;;;;;4973157;28;20299;-82
2022/06/09 12:53:36;;;;;;;10.13;2.92;;;24.70;99.90;;;;;;4973251;28;20652;-92
2022/06/09 12:56:07;;;;;;;9.93;2.60;;;24.70;99.90;;;;;;4975318;28;20217;-90
2022/06/09 12:58:45;;;;;;;9.57;2.53;;;24.50;99.90;;;;;;4974337;28;20231;-89
2022/06/09 13:01:15;;;;;;;12.13;3.28;;;24.30;99.90;;;;;;4973065;28;20213;-90
2022/06/09 13:03:47;;;;;;;8.70;2.38;;;24.30;99.90;;;;;;4971894;28;20453;-81
2022/06/09 13:06:23;;;;;;;10.07;2.70;;;24.40;99.90;;;;;;4968217;28;20295;-83
2022/06/09 13:08:55;;;;;;;12.68;3.30;;;24.40;99.90;;;;;;4972181;28;20287;-82
2022/06/09 13:14:08;;;;;;;8.10;2.60;;;24.40;99.90;;;;;;4954420;29;20279;-87
2022/06/09 13:16:39;;;;;;;12.18;2.30;;;24.40;99.90;;;;;;4954236;29;21025;-84
2022/06/09 13:19:07;;;;;;;9.68;3.33;;;24.30;99.90;;;;;;4952601;29;20315;-90
2022/06/09 13:21:38;;;;;;;8.50;2.58;;;24.40;99.90;;;;;;4966065;28;20220;-90
2022/06/09 13:24:12;;;;;;;10.70;2.83;;;24.40;99.90;;;;;;4971614;28;20219;-88
2022/06/09 13:26:43;;;;;;;11.77;2.63;;;24.40;99.90;;;;;;4971254;28;20204;-88
2022/06/09 13:29:21;;;;;;;10.25;2.33;;;24.30;99.90;;;;;;4971535;28;20515;-90
2022/06/09 13:31:50;;;;;;;8.98;2.90;;;24.30;99.90;;;;;;4972000;28;20220;-86
2022/06/09 13:34:23;;;;;;;6.13;2.08;;;24.30;99.90;;;;;;4971593;28;20209;-86